sensor_id;sensor_type;location;lat;lon;timestamp;P1;durP1;ratioP1;P2;durP2;ratioP2
12271;SDS011;6198;51.446;6.698;2023-01-13T00:00:17;3.63;;;1.50;;
12271;SDS011;6198;51.446;6.698;2023-01-13T00:02:43;5.60;;;2.20;;
12271;SDS011;6198;51.446;6.698;2023-01-13T00:05:09;1.87;;;1.57;;
12271;SDS011;6198;51.446;6.698;2023-01-13T00:07:35;2.20;;;1.43;;
12271;SDS011;6198;51.446;6.698;2023-01-13T00:10:02;2.90;;;1.47;;
12271;SDS011;6198;51.446;6.698;2023-01-13T00:12:28;2.90;;;1.50;;
12271;SDS011;6198;51.446;6.698;2023-01-13T00:14:54;5.50;;;1.90;;
12271;SDS011;6198;51.446;6.698;2023-01-13T00:17:21;3.17;;;1.70;;
12271;SDS011;6198;51.446;6.698;2023-01-13T00:19:47;3.77;;;2.00;;
12271;SDS011;6198;51.446;6.698;2023-01-13T00:22:13;3.63;;;1.53;;
12271;SDS011;6198;51.446;6.698;2023-01-13T00:24:38;2.83;;;1.63;;
12271;SDS011;6198;51.446;6.698;2023-01-13T00:27:04;5.30;;;2.20;;
12271;SDS011;6198;51.446;6.698;2023-01-13T00:29:30;2.23;;;1.77;;
12271;SDS011;6198;51.446;6.698;2023-01-13T00:31:56;4.00;;;2.13;;
12271;SDS011;6198;51.446;6.698;2023-01-13T00:34:22;5.23;;;1.73;;
12271;SDS011;6198;51.446;6.698;2023-01-13T00:36:48;5.17;;;2.10;;
12271;SDS011;6198;51.446;6.698;2023-01-13T00:39:14;5.43;;;1.80;;
12271;SDS011;6198;51.446;6.698;2023-01-13T00:41:40;7.13;;;2.60;;
12271;SDS011;6198;51.446;6.698;2023-01-13T00:44:25;5.77;;;1.83;;
12271;SDS011;6198;51.446;6.698;2023-01-13T00:46:51;6.07;;;2.20;;
12271;SDS011;6198;51.446;6.698;2023-01-13T00:49:17;7.17;;;1.90;;
12271;SDS011;6198;51.446;6.698;2023-01-13T00:51:42;8.20;;;1.87;;
12271;SDS011;6198;51.446;6.698;2023-01-13T00:54:08;6.40;;;1.70;;
12271;SDS011;6198;51.446;6.698;2023-01-13T00:56:34;6.43;;;2.07;;
12271;SDS011;6198;51.446;6.698;2023-01-13T00:59:00;7.07;;;1.97;;
12271;SDS011;6198;51.446;6.698;2023-01-13T01:01:28;7.30;;;2.10;;
12271;SDS011;6198;51.446;6.698;2023-01-13T01:03:54;5.73;;;2.40;;
12271;SDS011;6198;51.446;6.698;2023-01-13T01:06:22;6.03;;;2.10;;
12271;SDS011;6198;51.446;6.698;2023-01-13T01:08:48;8.57;;;2.50;;
12271;SDS011;6198;51.446;6.698;2023-01-13T01:11:24;7.00;;;2.10;;
12271;SDS011;6198;51.446;6.698;2023-01-13T01:13:51;10.03;;;2.63;;
12271;SDS011;6198;51.446;6.698;2023-01-13T01:16:18;10.10;;;2.60;;
12271;SDS011;6198;51.446;6.698;2023-01-13T01:18:45;7.07;;;2.50;;
12271;SDS011;6198;51.446;6.698;2023-01-13T01:21:12;12.77;;;2.73;;
12271;SDS011;6198;51.446;6.698;2023-01-13T01:23:38;9.50;;;2.53;;
12271;SDS011;6198;51.446;6.698;2023-01-13T01:26:09;9.93;;;2.77;;
12271;SDS011;6198;51.446;6.698;2023-01-13T01:28:35;11.03;;;2.47;;
12271;SDS011;6198;51.446;6.698;2023-01-13T01:31:07;9.83;;;2.97;;
12271;SDS011;6198;51.446;6.698;2023-01-13T01:33:33;9.50;;;2.73;;
12271;SDS011;6198;51.446;6.698;2023-01-13T01:35:59;12.57;;;3.27;;
12271;SDS011;6198;51.446;6.698;2023-01-13T01:38:25;9.80;;;2.87;;
12271;SDS011;6198;51.446;6.698;2023-01-13T01:40:51;11.70;;;2.73;;
12271;SDS011;6198;51.446;6.698;2023-01-13T01:43:18;14.30;;;3.03;;
12271;SDS011;6198;51.446;6.698;2023-01-13T01:46:03;11.57;;;3.53;;
12271;SDS011;6198;51.446;6.698;2023-01-13T01:48:31;10.33;;;2.53;;
12271;SDS011;6198;51.446;6.698;2023-01-13T01:50:58;13.13;;;3.27;;
12271;SDS011;6198;51.446;6.698;2023-01-13T01:53:24;8.57;;;2.73;;
12271;SDS011;6198;51.446;6.698;2023-01-13T01:55:51;14.43;;;3.17;;
12271;SDS011;6198;51.446;6.698;2023-01-13T01:58:18;13.37;;;3.33;;
12271;SDS011;6198;51.446;6.698;2023-01-13T02:00:46;10.67;;;2.83;;
12271;SDS011;6198;51.446;6.698;2023-01-13T02:03:12;15.67;;;3.17;;
12271;SDS011;6198;51.446;6.698;2023-01-13T02:05:39;19.97;;;3.40;;
12271;SDS011;6198;51.446;6.698;2023-01-13T02:08:05;14.70;;;3.03;;
12271;SDS011;6198;51.446;6.698;2023-01-13T02:10:32;12.63;;;2.97;;
12271;SDS011;6198;51.446;6.698;2023-01-13T02:12:59;10.83;;;3.20;;
12271;SDS011;6198;51.446;6.698;2023-01-13T02:15:28;13.07;;;3.73;;
12271;SDS011;6198;51.446;6.698;2023-01-13T02:20:43;11.37;;;3.50;;
12271;SDS011;6198;51.446;6.698;2023-01-13T02:28:55;13.30;;;3.50;;
12271;SDS011;6198;51.446;6.698;2023-01-13T02:31:43;13.33;;;4.23;;
12271;SDS011;6198;51.446;6.698;2023-01-13T02:34:16;15.30;;;3.00;;
12271;SDS011;6198;51.446;6.698;2023-01-13T02:37:02;13.73;;;3.10;;
12271;SDS011;6198;51.446;6.698;2023-01-13T02:39:33;17.70;;;3.60;;
12271;SDS011;6198;51.446;6.698;2023-01-13T02:42:06;12.30;;;3.03;;
12271;SDS011;6198;51.446;6.698;2023-01-13T02:44:53;11.87;;;4.03;;
12271;SDS011;6198;51.446;6.698;2023-01-13T02:47:24;12.70;;;3.37;;
12271;SDS011;6198;51.446;6.698;2023-01-13T02:49:55;11.00;;;3.40;;
12271;SDS011;6198;51.446;6.698;2023-01-13T02:52:33;15.77;;;3.90;;
12271;SDS011;6198;51.446;6.698;2023-01-13T02:55:02;17.53;;;3.60;;
12271;SDS011;6198;51.446;6.698;2023-01-13T02:57:30;18.37;;;4.13;;
12271;SDS011;6198;51.446;6.698;2023-01-13T02:59:57;13.07;;;4.30;;
12271;SDS011;6198;51.446;6.698;2023-01-13T03:02:23;23.17;;;3.87;;
12271;SDS011;6198;51.446;6.698;2023-01-13T03:04:54;19.67;;;4.40;;
12271;SDS011;6198;51.446;6.698;2023-01-13T03:12:37;18.30;;;4.60;;
12271;SDS011;6198;51.446;6.698;2023-01-13T03:17:36;18.20;;;4.40;;
12271;SDS011;6198;51.446;6.698;2023-01-13T03:20:39;19.43;;;3.97;;
12271;SDS011;6198;51.446;6.698;2023-01-13T03:25:23;15.07;;;3.73;;
12271;SDS011;6198;51.446;6.698;2023-01-13T03:27:55;21.10;;;4.10;;
12271;SDS011;6198;51.446;6.698;2023-01-13T03:32:48;20.97;;;4.20;;
12271;SDS011;6198;51.446;6.698;2023-01-13T03:35:33;19.20;;;4.30;;
12271;SDS011;6198;51.446;6.698;2023-01-13T03:38:05;17.47;;;3.40;;
12271;SDS011;6198;51.446;6.698;2023-01-13T03:40:33;12.10;;;3.40;;
12271;SDS011;6198;51.446;6.698;2023-01-13T03:43:01;20.93;;;5.13;;
12271;SDS011;6198;51.446;6.698;2023-01-13T03:45:49;12.40;;;3.20;;
12271;SDS011;6198;51.446;6.698;2023-01-13T03:48:17;12.17;;;3.07;;
12271;SDS011;6198;51.446;6.698;2023-01-13T03:50:46;9.47;;;2.70;;
12271;SDS011;6198;51.446;6.698;2023-01-13T03:53:14;15.37;;;3.17;;
12271;SDS011;6198;51.446;6.698;2023-01-13T03:55:44;10.60;;;3.00;;
12271;SDS011;6198;51.446;6.698;2023-01-13T03:58:15;12.60;;;2.90;;
12271;SDS011;6198;51.446;6.698;2023-01-13T04:00:45;12.33;;;2.97;;
12271;SDS011;6198;51.446;6.698;2023-01-13T04:03:14;8.30;;;2.60;;
12271;SDS011;6198;51.446;6.698;2023-01-13T04:05:43;11.03;;;2.80;;
12271;SDS011;6198;51.446;6.698;2023-01-13T04:08:13;9.00;;;2.53;;
12271;SDS011;6198;51.446;6.698;2023-01-13T04:10:48;12.33;;;2.67;;
12271;SDS011;6198;51.446;6.698;2023-01-13T04:13:16;10.50;;;2.67;;
12271;SDS011;6198;51.446;6.698;2023-01-13T04:15:44;13.03;;;3.60;;
12271;SDS011;6198;51.446;6.698;2023-01-13T04:20:37;10.50;;;3.00;;
12271;SDS011;6198;51.446;6.698;2023-01-13T04:23:04;9.23;;;2.60;;
12271;SDS011;6198;51.446;6.698;2023-01-13T04:25:30;10.47;;;2.57;;
12271;SDS011;6198;51.446;6.698;2023-01-13T04:27:56;10.30;;;2.80;;
12271;SDS011;6198;51.446;6.698;2023-01-13T04:30:22;10.80;;;2.70;;
12271;SDS011;6198;51.446;6.698;2023-01-13T04:32:48;15.57;;;2.90;;
12271;SDS011;6198;51.446;6.698;2023-01-13T04:35:14;11.43;;;2.70;;
12271;SDS011;6198;51.446;6.698;2023-01-13T04:37:39;14.63;;;3.00;;
12271;SDS011;6198;51.446;6.698;2023-01-13T04:40:06;11.20;;;2.73;;
12271;SDS011;6198;51.446;6.698;2023-01-13T04:42:32;13.83;;;3.30;;
12271;SDS011;6198;51.446;6.698;2023-01-13T04:44:58;11.27;;;3.13;;
12271;SDS011;6198;51.446;6.698;2023-01-13T04:47:24;11.27;;;3.00;;
12271;SDS011;6198;51.446;6.698;2023-01-13T04:49:50;17.17;;;3.57;;
12271;SDS011;6198;51.446;6.698;2023-01-13T04:52:15;12.47;;;3.30;;
12271;SDS011;6198;51.446;6.698;2023-01-13T04:54:41;10.63;;;3.20;;
12271;SDS011;6198;51.446;6.698;2023-01-13T04:57:07;12.73;;;3.70;;
12271;SDS011;6198;51.446;6.698;2023-01-13T04:59:33;14.63;;;3.60;;
12271;SDS011;6198;51.446;6.698;2023-01-13T05:01:59;12.90;;;3.20;;
12271;SDS011;6198;51.446;6.698;2023-01-13T05:04:25;14.40;;;4.23;;
12271;SDS011;6198;51.446;6.698;2023-01-13T05:06:51;11.13;;;3.13;;
12271;SDS011;6198;51.446;6.698;2023-01-13T05:09:17;23.27;;;3.93;;
12271;SDS011;6198;51.446;6.698;2023-01-13T05:11:43;15.93;;;3.43;;
12271;SDS011;6198;51.446;6.698;2023-01-13T05:14:27;16.60;;;4.40;;
12271;SDS011;6198;51.446;6.698;2023-01-13T05:17:16;16.97;;;3.03;;
12271;SDS011;6198;51.446;6.698;2023-01-13T05:19:43;14.87;;;3.90;;
12271;SDS011;6198;51.446;6.698;2023-01-13T05:22:09;19.73;;;4.03;;
12271;SDS011;6198;51.446;6.698;2023-01-13T05:24:53;17.50;;;3.73;;
12271;SDS011;6198;51.446;6.698;2023-01-13T05:27:38;12.90;;;3.20;;
12271;SDS011;6198;51.446;6.698;2023-01-13T05:30:04;11.67;;;3.13;;
12271;SDS011;6198;51.446;6.698;2023-01-13T05:32:30;10.23;;;3.53;;
12271;SDS011;6198;51.446;6.698;2023-01-13T05:34:57;17.83;;;3.40;;
12271;SDS011;6198;51.446;6.698;2023-01-13T05:37:23;15.97;;;3.83;;
12271;SDS011;6198;51.446;6.698;2023-01-13T05:39:49;17.10;;;3.57;;
12271;SDS011;6198;51.446;6.698;2023-01-13T05:42:34;14.70;;;3.20;;
12271;SDS011;6198;51.446;6.698;2023-01-13T05:45:19;9.20;;;3.37;;
12271;SDS011;6198;51.446;6.698;2023-01-13T05:47:45;13.63;;;2.80;;
12271;SDS011;6198;51.446;6.698;2023-01-13T05:50:11;14.27;;;3.30;;
12271;SDS011;6198;51.446;6.698;2023-01-13T05:52:37;9.53;;;3.17;;
12271;SDS011;6198;51.446;6.698;2023-01-13T05:55:03;12.03;;;2.80;;
12271;SDS011;6198;51.446;6.698;2023-01-13T05:57:29;11.50;;;2.80;;
12271;SDS011;6198;51.446;6.698;2023-01-13T05:59:55;10.40;;;2.97;;
12271;SDS011;6198;51.446;6.698;2023-01-13T06:02:21;10.90;;;2.60;;
12271;SDS011;6198;51.446;6.698;2023-01-13T06:04:47;16.40;;;3.57;;
12271;SDS011;6198;51.446;6.698;2023-01-13T06:07:13;11.03;;;2.93;;
12271;SDS011;6198;51.446;6.698;2023-01-13T06:09:39;12.33;;;3.27;;
12271;SDS011;6198;51.446;6.698;2023-01-13T06:12:05;12.47;;;2.80;;
12271;SDS011;6198;51.446;6.698;2023-01-13T06:14:31;18.60;;;4.07;;
12271;SDS011;6198;51.446;6.698;2023-01-13T06:17:06;16.27;;;3.93;;
12271;SDS011;6198;51.446;6.698;2023-01-13T06:19:32;14.90;;;3.67;;
12271;SDS011;6198;51.446;6.698;2023-01-13T06:21:59;15.13;;;3.37;;
12271;SDS011;6198;51.446;6.698;2023-01-13T06:24:26;13.90;;;3.43;;
12271;SDS011;6198;51.446;6.698;2023-01-13T06:26:53;13.10;;;3.37;;
12271;SDS011;6198;51.446;6.698;2023-01-13T06:29:19;9.33;;;3.10;;
12271;SDS011;6198;51.446;6.698;2023-01-13T06:31:45;13.67;;;3.17;;
12271;SDS011;6198;51.446;6.698;2023-01-13T06:34:11;19.77;;;3.40;;
12271;SDS011;6198;51.446;6.698;2023-01-13T06:36:39;16.33;;;3.80;;
12271;SDS011;6198;51.446;6.698;2023-01-13T06:39:06;13.60;;;3.03;;
12271;SDS011;6198;51.446;6.698;2023-01-13T06:41:33;16.47;;;4.23;;
12271;SDS011;6198;51.446;6.698;2023-01-13T06:44:18;12.10;;;3.07;;
12271;SDS011;6198;51.446;6.698;2023-01-13T06:46:45;19.37;;;3.67;;
12271;SDS011;6198;51.446;6.698;2023-01-13T06:49:11;18.80;;;3.83;;
12271;SDS011;6198;51.446;6.698;2023-01-13T06:51:37;6.57;;;2.43;;
12271;SDS011;6198;51.446;6.698;2023-01-13T06:54:03;12.17;;;3.00;;
12271;SDS011;6198;51.446;6.698;2023-01-13T06:56:29;14.13;;;3.63;;
12271;SDS011;6198;51.446;6.698;2023-01-13T06:58:55;15.87;;;3.57;;
12271;SDS011;6198;51.446;6.698;2023-01-13T07:01:21;11.63;;;3.33;;
12271;SDS011;6198;51.446;6.698;2023-01-13T07:03:47;9.97;;;2.90;;
12271;SDS011;6198;51.446;6.698;2023-01-13T07:06:13;16.93;;;3.30;;
12271;SDS011;6198;51.446;6.698;2023-01-13T07:08:39;15.33;;;3.30;;
12271;SDS011;6198;51.446;6.698;2023-01-13T07:11:05;14.33;;;2.97;;
12271;SDS011;6198;51.446;6.698;2023-01-13T07:13:33;11.37;;;2.97;;
12271;SDS011;6198;51.446;6.698;2023-01-13T07:16:17;15.30;;;3.47;;
12271;SDS011;6198;51.446;6.698;2023-01-13T07:18:43;11.77;;;3.30;;
12271;SDS011;6198;51.446;6.698;2023-01-13T07:21:10;9.77;;;3.20;;
12271;SDS011;6198;51.446;6.698;2023-01-13T07:23:38;16.70;;;3.60;;
12271;SDS011;6198;51.446;6.698;2023-01-13T07:26:04;12.17;;;3.40;;
12271;SDS011;6198;51.446;6.698;2023-01-13T07:28:30;12.13;;;3.10;;
12271;SDS011;6198;51.446;6.698;2023-01-13T07:30:57;18.67;;;3.27;;
12271;SDS011;6198;51.446;6.698;2023-01-13T07:33:24;13.83;;;3.90;;
12271;SDS011;6198;51.446;6.698;2023-01-13T07:35:56;12.50;;;3.77;;
12271;SDS011;6198;51.446;6.698;2023-01-13T07:38:25;11.93;;;3.03;;
12271;SDS011;6198;51.446;6.698;2023-01-13T07:40:52;13.87;;;3.47;;
12271;SDS011;6198;51.446;6.698;2023-01-13T07:43:18;12.03;;;3.10;;
12271;SDS011;6198;51.446;6.698;2023-01-13T07:46:02;11.87;;;2.90;;
12271;SDS011;6198;51.446;6.698;2023-01-13T07:48:30;14.20;;;3.23;;
12271;SDS011;6198;51.446;6.698;2023-01-13T07:50:59;9.77;;;3.43;;
12271;SDS011;6198;51.446;6.698;2023-01-13T07:53:25;12.13;;;3.53;;
12271;SDS011;6198;51.446;6.698;2023-01-13T07:55:55;6.93;;;2.33;;
12271;SDS011;6198;51.446;6.698;2023-01-13T07:58:21;11.90;;;3.50;;
12271;SDS011;6198;51.446;6.698;2023-01-13T08:00:47;13.43;;;3.07;;
12271;SDS011;6198;51.446;6.698;2023-01-13T08:03:13;12.57;;;3.03;;
12271;SDS011;6198;51.446;6.698;2023-01-13T08:05:39;13.00;;;3.00;;
12271;SDS011;6198;51.446;6.698;2023-01-13T08:08:05;10.50;;;2.67;;
12271;SDS011;6198;51.446;6.698;2023-01-13T08:10:31;13.03;;;3.20;;
12271;SDS011;6198;51.446;6.698;2023-01-13T08:12:57;12.30;;;3.00;;
12271;SDS011;6198;51.446;6.698;2023-01-13T08:15:41;9.83;;;3.47;;
12271;SDS011;6198;51.446;6.698;2023-01-13T08:18:07;15.90;;;3.40;;
12271;SDS011;6198;51.446;6.698;2023-01-13T08:20:33;15.13;;;3.93;;
12271;SDS011;6198;51.446;6.698;2023-01-13T08:22:59;16.73;;;3.57;;
12271;SDS011;6198;51.446;6.698;2023-01-13T08:25:26;10.63;;;2.90;;
12271;SDS011;6198;51.446;6.698;2023-01-13T08:27:52;18.07;;;3.57;;
12271;SDS011;6198;51.446;6.698;2023-01-13T08:30:18;15.47;;;3.73;;
12271;SDS011;6198;51.446;6.698;2023-01-13T08:32:44;12.47;;;3.63;;
12271;SDS011;6198;51.446;6.698;2023-01-13T08:35:11;12.70;;;3.67;;
12271;SDS011;6198;51.446;6.698;2023-01-13T08:37:38;18.50;;;4.13;;
12271;SDS011;6198;51.446;6.698;2023-01-13T08:40:04;15.57;;;3.80;;
12271;SDS011;6198;51.446;6.698;2023-01-13T08:42:30;10.33;;;3.40;;
12271;SDS011;6198;51.446;6.698;2023-01-13T08:44:56;15.80;;;3.70;;
12271;SDS011;6198;51.446;6.698;2023-01-13T08:47:22;14.70;;;3.97;;
12271;SDS011;6198;51.446;6.698;2023-01-13T08:49:49;15.37;;;3.73;;
12271;SDS011;6198;51.446;6.698;2023-01-13T08:52:15;13.93;;;3.30;;
12271;SDS011;6198;51.446;6.698;2023-01-13T08:54:41;19.73;;;3.70;;
12271;SDS011;6198;51.446;6.698;2023-01-13T08:57:07;18.70;;;4.40;;
12271;SDS011;6198;51.446;6.698;2023-01-13T08:59:33;11.60;;;3.47;;
12271;SDS011;6198;51.446;6.698;2023-01-13T09:01:59;14.23;;;3.20;;
12271;SDS011;6198;51.446;6.698;2023-01-13T09:04:25;11.83;;;3.43;;
12271;SDS011;6198;51.446;6.698;2023-01-13T09:06:52;11.47;;;4.77;;
12271;SDS011;6198;51.446;6.698;2023-01-13T09:09:19;11.07;;;3.47;;
12271;SDS011;6198;51.446;6.698;2023-01-13T09:11:46;14.60;;;4.33;;
12271;SDS011;6198;51.446;6.698;2023-01-13T09:14:32;15.27;;;3.97;;
12271;SDS011;6198;51.446;6.698;2023-01-13T09:16:59;16.63;;;4.23;;
12271;SDS011;6198;51.446;6.698;2023-01-13T09:19:26;13.87;;;4.37;;
12271;SDS011;6198;51.446;6.698;2023-01-13T09:21:53;12.43;;;3.17;;
12271;SDS011;6198;51.446;6.698;2023-01-13T09:24:19;10.57;;;3.40;;
12271;SDS011;6198;51.446;6.698;2023-01-13T09:26:45;14.83;;;3.50;;
12271;SDS011;6198;51.446;6.698;2023-01-13T09:29:11;18.97;;;3.90;;
12271;SDS011;6198;51.446;6.698;2023-01-13T09:31:37;14.43;;;4.17;;
12271;SDS011;6198;51.446;6.698;2023-01-13T09:34:04;13.57;;;4.27;;
12271;SDS011;6198;51.446;6.698;2023-01-13T09:36:49;16.33;;;3.73;;
12271;SDS011;6198;51.446;6.698;2023-01-13T09:39:15;19.77;;;4.33;;
12271;SDS011;6198;51.446;6.698;2023-01-13T09:41:43;14.27;;;4.23;;
12271;SDS011;6198;51.446;6.698;2023-01-13T09:50:22;17.30;;;4.40;;
12271;SDS011;6198;51.446;6.698;2023-01-13T09:52:45;14.77;;;3.97;;
12271;SDS011;6198;51.446;6.698;2023-01-13T09:55:30;22.70;;;4.33;;
12271;SDS011;6198;51.446;6.698;2023-01-13T09:57:57;16.83;;;4.00;;
12271;SDS011;6198;51.446;6.698;2023-01-13T10:00:26;16.87;;;4.40;;
12271;SDS011;6198;51.446;6.698;2023-01-13T10:07:58;13.70;;;3.97;;
12271;SDS011;6198;51.446;6.698;2023-01-13T10:10:42;17.10;;;4.50;;
12271;SDS011;6198;51.446;6.698;2023-01-13T10:13:17;17.10;;;4.47;;
12271;SDS011;6198;51.446;6.698;2023-01-13T10:15:51;17.93;;;4.43;;
12271;SDS011;6198;51.446;6.698;2023-01-13T10:18:23;13.67;;;3.60;;
12271;SDS011;6198;51.446;6.698;2023-01-13T10:20:55;20.50;;;4.93;;
12271;SDS011;6198;51.446;6.698;2023-01-13T10:23:32;16.83;;;4.20;;
12271;SDS011;6198;51.446;6.698;2023-01-13T10:28:31;15.20;;;4.53;;
12271;SDS011;6198;51.446;6.698;2023-01-13T10:30:57;20.77;;;4.37;;
12271;SDS011;6198;51.446;6.698;2023-01-13T10:33:26;17.97;;;4.63;;
12271;SDS011;6198;51.446;6.698;2023-01-13T10:38:23;15.17;;;3.83;;
12271;SDS011;6198;51.446;6.698;2023-01-13T10:40:59;14.53;;;4.40;;
12271;SDS011;6198;51.446;6.698;2023-01-13T10:43:26;16.20;;;4.17;;
12271;SDS011;6198;51.446;6.698;2023-01-13T10:45:57;17.70;;;4.50;;
12271;SDS011;6198;51.446;6.698;2023-01-13T10:48:30;15.73;;;4.27;;
12271;SDS011;6198;51.446;6.698;2023-01-13T10:50:56;17.93;;;4.67;;
12271;SDS011;6198;51.446;6.698;2023-01-13T10:53:23;19.63;;;4.87;;
12271;SDS011;6198;51.446;6.698;2023-01-13T10:55:57;20.93;;;4.97;;
12271;SDS011;6198;51.446;6.698;2023-01-13T10:58:24;20.77;;;4.80;;
12271;SDS011;6198;51.446;6.698;2023-01-13T11:00:57;23.70;;;8.43;;
12271;SDS011;6198;51.446;6.698;2023-01-13T11:03:24;16.87;;;6.77;;
12271;SDS011;6198;51.446;6.698;2023-01-13T11:05:55;25.07;;;9.17;;
12271;SDS011;6198;51.446;6.698;2023-01-13T11:08:26;25.87;;;7.77;;
12271;SDS011;6198;51.446;6.698;2023-01-13T11:10:56;23.23;;;7.90;;
12271;SDS011;6198;51.446;6.698;2023-01-13T11:13:28;18.63;;;4.67;;
12271;SDS011;6198;51.446;6.698;2023-01-13T11:18:37;19.03;;;4.67;;
12271;SDS011;6198;51.446;6.698;2023-01-13T11:21:10;30.00;;;11.77;;
12271;SDS011;6198;51.446;6.698;2023-01-13T11:23:40;25.23;;;9.37;;
12271;SDS011;6198;51.446;6.698;2023-01-13T11:26:17;28.37;;;10.30;;
12271;SDS011;6198;51.446;6.698;2023-01-13T11:29:03;18.70;;;5.93;;
12271;SDS011;6198;51.446;6.698;2023-01-13T11:31:38;18.83;;;5.00;;
12271;SDS011;6198;51.446;6.698;2023-01-13T11:34:07;11.87;;;3.77;;
12271;SDS011;6198;51.446;6.698;2023-01-13T11:36:42;18.90;;;5.07;;
12271;SDS011;6198;51.446;6.698;2023-01-13T11:44:18;16.30;;;4.37;;
12271;SDS011;6198;51.446;6.698;2023-01-13T11:46:49;24.03;;;5.47;;
12271;SDS011;6198;51.446;6.698;2023-01-13T11:49:26;23.03;;;4.40;;
12271;SDS011;6198;51.446;6.698;2023-01-13T11:54:31;21.70;;;5.03;;
12271;SDS011;6198;51.446;6.698;2023-01-13T12:05:07;21.27;;;5.67;;
12271;SDS011;6198;51.446;6.698;2023-01-13T12:07:50;19.10;;;5.67;;
12271;SDS011;6198;51.446;6.698;2023-01-13T12:15:35;26.37;;;7.60;;
12271;SDS011;6198;51.446;6.698;2023-01-13T12:26:10;17.73;;;5.47;;
12271;SDS011;6198;51.446;6.698;2023-01-13T12:31:06;16.27;;;4.60;;
12271;SDS011;6198;51.446;6.698;2023-01-13T12:36:16;15.77;;;5.20;;
12271;SDS011;6198;51.446;6.698;2023-01-13T12:38:47;14.90;;;4.93;;
12271;SDS011;6198;51.446;6.698;2023-01-13T12:43:59;10.97;;;3.70;;
12271;SDS011;6198;51.446;6.698;2023-01-13T12:46:57;12.80;;;3.70;;
12271;SDS011;6198;51.446;6.698;2023-01-13T12:49:33;12.63;;;3.93;;
12271;SDS011;6198;51.446;6.698;2023-01-13T12:52:10;17.93;;;4.77;;
12271;SDS011;6198;51.446;6.698;2023-01-13T12:57:19;14.03;;;4.33;;
12271;SDS011;6198;51.446;6.698;2023-01-13T13:02:25;12.57;;;4.63;;
12271;SDS011;6198;51.446;6.698;2023-01-13T13:04:52;23.50;;;5.10;;
12271;SDS011;6198;51.446;6.698;2023-01-13T13:10:02;11.07;;;3.97;;
12271;SDS011;6198;51.446;6.698;2023-01-13T13:15:26;20.83;;;4.13;;
12271;SDS011;6198;51.446;6.698;2023-01-13T13:20:53;20.17;;;5.80;;
12271;SDS011;6198;51.446;6.698;2023-01-13T13:23:27;19.70;;;4.80;;
12271;SDS011;6198;51.446;6.698;2023-01-13T13:28:38;18.43;;;4.07;;
12271;SDS011;6198;51.446;6.698;2023-01-13T13:31:28;17.50;;;4.30;;
12271;SDS011;6198;51.446;6.698;2023-01-13T13:36:43;17.00;;;4.17;;
12271;SDS011;6198;51.446;6.698;2023-01-13T13:39:20;16.50;;;4.17;;
12271;SDS011;6198;51.446;6.698;2023-01-13T13:44:58;16.43;;;5.20;;
12271;SDS011;6198;51.446;6.698;2023-01-13T13:47:44;14.90;;;4.23;;
12271;SDS011;6198;51.446;6.698;2023-01-13T13:50:12;15.43;;;5.17;;
12271;SDS011;6198;51.446;6.698;2023-01-13T13:52:40;14.77;;;4.20;;
12271;SDS011;6198;51.446;6.698;2023-01-13T13:55:16;15.47;;;4.73;;
12271;SDS011;6198;51.446;6.698;2023-01-13T13:57:44;15.60;;;4.77;;
12271;SDS011;6198;51.446;6.698;2023-01-13T14:02:39;15.13;;;4.13;;
12271;SDS011;6198;51.446;6.698;2023-01-13T14:05:21;20.17;;;5.20;;
12271;SDS011;6198;51.446;6.698;2023-01-13T14:07:49;19.73;;;5.07;;
12271;SDS011;6198;51.446;6.698;2023-01-13T14:10:20;22.87;;;4.93;;
12271;SDS011;6198;51.446;6.698;2023-01-13T14:12:48;21.00;;;5.57;;
12271;SDS011;6198;51.446;6.698;2023-01-13T14:15:24;18.63;;;5.37;;
12271;SDS011;6198;51.446;6.698;2023-01-13T14:17:51;24.77;;;4.97;;
12271;SDS011;6198;51.446;6.698;2023-01-13T14:20:17;24.37;;;5.90;;
12271;SDS011;6198;51.446;6.698;2023-01-13T14:22:46;17.30;;;4.73;;
12271;SDS011;6198;51.446;6.698;2023-01-13T14:25:26;24.00;;;5.10;;
12271;SDS011;6198;51.446;6.698;2023-01-13T14:27:53;22.13;;;5.80;;
12271;SDS011;6198;51.446;6.698;2023-01-13T14:30:19;20.23;;;5.57;;
12271;SDS011;6198;51.446;6.698;2023-01-13T14:32:46;19.47;;;4.70;;
12271;SDS011;6198;51.446;6.698;2023-01-13T14:35:16;16.33;;;4.20;;
12271;SDS011;6198;51.446;6.698;2023-01-13T14:37:42;22.90;;;5.40;;
12271;SDS011;6198;51.446;6.698;2023-01-13T14:43:12;24.97;;;5.30;;
12271;SDS011;6198;51.446;6.698;2023-01-13T14:45:41;21.03;;;5.03;;
12271;SDS011;6198;51.446;6.698;2023-01-13T14:48:09;24.53;;;7.60;;
12271;SDS011;6198;51.446;6.698;2023-01-13T14:50:35;25.70;;;7.23;;
12271;SDS011;6198;51.446;6.698;2023-01-13T14:53:02;17.90;;;4.30;;
12271;SDS011;6198;51.446;6.698;2023-01-13T14:55:30;22.77;;;5.27;;
12271;SDS011;6198;51.446;6.698;2023-01-13T15:00:42;21.10;;;5.23;;
12271;SDS011;6198;51.446;6.698;2023-01-13T15:03:08;21.67;;;5.53;;
12271;SDS011;6198;51.446;6.698;2023-01-13T15:05:35;22.40;;;5.30;;
12271;SDS011;6198;51.446;6.698;2023-01-13T15:13:06;16.53;;;3.70;;
12271;SDS011;6198;51.446;6.698;2023-01-13T15:15:36;15.47;;;4.00;;
12271;SDS011;6198;51.446;6.698;2023-01-13T15:18:10;10.20;;;3.60;;
12271;SDS011;6198;51.446;6.698;2023-01-13T15:20:37;13.33;;;3.63;;
12271;SDS011;6198;51.446;6.698;2023-01-13T15:23:03;10.73;;;3.60;;
12271;SDS011;6198;51.446;6.698;2023-01-13T15:25:32;12.60;;;3.63;;
12271;SDS011;6198;51.446;6.698;2023-01-13T15:27:58;8.33;;;3.00;;
12271;SDS011;6198;51.446;6.698;2023-01-13T15:30:25;12.27;;;3.43;;
12271;SDS011;6198;51.446;6.698;2023-01-13T15:32:52;13.20;;;3.80;;
12271;SDS011;6198;51.446;6.698;2023-01-13T15:35:19;12.90;;;3.80;;
12271;SDS011;6198;51.446;6.698;2023-01-13T15:37:45;14.73;;;3.80;;
12271;SDS011;6198;51.446;6.698;2023-01-13T15:40:16;10.93;;;3.67;;
12271;SDS011;6198;51.446;6.698;2023-01-13T15:42:42;11.70;;;3.37;;
12271;SDS011;6198;51.446;6.698;2023-01-13T15:45:27;14.67;;;3.43;;
12271;SDS011;6198;51.446;6.698;2023-01-13T15:48:12;10.23;;;3.73;;
12271;SDS011;6198;51.446;6.698;2023-01-13T15:50:38;14.53;;;3.63;;
12271;SDS011;6198;51.446;6.698;2023-01-13T15:53:04;14.17;;;3.73;;
12271;SDS011;6198;51.446;6.698;2023-01-13T15:55:33;14.00;;;3.93;;
12271;SDS011;6198;51.446;6.698;2023-01-13T15:58:01;17.17;;;3.70;;
12271;SDS011;6198;51.446;6.698;2023-01-13T16:00:28;15.13;;;4.23;;
12271;SDS011;6198;51.446;6.698;2023-01-13T16:02:54;14.30;;;3.80;;
12271;SDS011;6198;51.446;6.698;2023-01-13T16:05:19;19.40;;;7.10;;
12271;SDS011;6198;51.446;6.698;2023-01-13T16:07:45;46.60;;;23.37;;
12271;SDS011;6198;51.446;6.698;2023-01-13T16:10:16;17.60;;;8.00;;
12271;SDS011;6198;51.446;6.698;2023-01-13T16:12:42;17.60;;;7.77;;
12271;SDS011;6198;51.446;6.698;2023-01-13T16:15:09;14.73;;;6.33;;
12271;SDS011;6198;51.446;6.698;2023-01-13T16:17:35;11.67;;;4.23;;
12271;SDS011;6198;51.446;6.698;2023-01-13T16:20:01;19.47;;;5.20;;
12271;SDS011;6198;51.446;6.698;2023-01-13T16:22:27;17.63;;;4.90;;
12271;SDS011;6198;51.446;6.698;2023-01-13T16:24:53;13.13;;;4.23;;
12271;SDS011;6198;51.446;6.698;2023-01-13T16:27:22;11.53;;;4.10;;
12271;SDS011;6198;51.446;6.698;2023-01-13T16:29:48;17.37;;;4.50;;
12271;SDS011;6198;51.446;6.698;2023-01-13T16:32:14;17.77;;;3.90;;
12271;SDS011;6198;51.446;6.698;2023-01-13T16:34:40;12.47;;;3.30;;
12271;SDS011;6198;51.446;6.698;2023-01-13T16:37:23;15.67;;;4.43;;
12271;SDS011;6198;51.446;6.698;2023-01-13T16:39:49;16.30;;;4.67;;
12271;SDS011;6198;51.446;6.698;2023-01-13T16:42:15;17.87;;;5.27;;
12271;SDS011;6198;51.446;6.698;2023-01-13T16:44:41;24.23;;;5.83;;
12271;SDS011;6198;51.446;6.698;2023-01-13T16:47:14;19.47;;;5.67;;
12271;SDS011;6198;51.446;6.698;2023-01-13T16:49:41;16.83;;;4.60;;
12271;SDS011;6198;51.446;6.698;2023-01-13T16:52:07;19.47;;;4.30;;
12271;SDS011;6198;51.446;6.698;2023-01-13T16:54:33;16.57;;;4.93;;
12271;SDS011;6198;51.446;6.698;2023-01-13T16:56:59;9.00;;;3.80;;